Time;durP1;ratioP1;P1;durP2;ratioP2;P2;SDS_P1;SDS_P2;PMS_P1;PMS_P2;Temp;Humidity;BMP_temperature;BMP_pressure;BME280_temperature;BME280_humidity;BME280_pressure;Samples;Min_cycle;Max_cycle;Signal;HPM_P1;HPM_P2
2022/06/14 00:01:37;;;;;;;12.07;4.10;;;11.40;99.90;;;;;;5111269;28;20054;-70
2022/06/14 00:04:03;;;;;;;;;;;11.20;99.90;;;;;;5113098;28;20145;-71
2022/06/14 00:06:31;;;;;;;16.08;4.03;;;10.90;99.90;;;;;;5112463;28;20014;-70
2022/06/14 00:08:57;;;;;;;15.50;4.32;;;11.20;99.90;;;;;;5128411;27;20047;-70
2022/06/14 00:11:30;;;;;;;13.38;4.32;;;11.70;99.90;;;;;;5112444;28;20672;-71
2022/06/14 00:13:58;;;;;;;14.93;4.20;;;12.20;99.90;;;;;;5112287;28;20554;-71
2022/06/14 00:16:25;;;;;;;15.75;4.00;;;11.90;99.90;;;;;;5111265;28;20054;-70
2022/06/14 00:18:51;;;;;;;14.30;3.90;;;11.20;99.90;;;;;;5111057;28;20070;-70
2022/06/14 00:21:18;;;;;;;13.10;3.88;;;12.20;99.90;;;;;;5112526;28;20387;-70
2022/06/14 00:23:44;;;;;;;8.57;4.38;;;10.90;99.90;;;;;;5112256;28;20051;-69
2022/06/14 00:26:11;;;;;;;14.07;4.43;;;12.70;99.90;;;;;;5112197;28;20053;-70
2022/06/14 00:28:39;;;;;;;16.60;3.95;;;11.60;99.90;;;;;;5111811;28;20047;-70
2022/06/14 00:31:15;;;;;;;14.95;4.13;;;11.90;99.90;;;;;;5111927;28;20047;-70
2022/06/14 00:33:41;;;;;;;16.35;5.22;;;10.60;99.90;;;;;;5112091;28;20372;-69
2022/06/14 00:36:30;;;;;;;;;;;11.70;99.90;;;;;;5112462;28;20089;-69
2022/06/14 00:39:00;;;;;;;11.90;4.60;;;10.80;99.90;;;;;;5112221;28;20325;-69
2022/06/14 00:41:38;;;;;;;10.93;4.18;;;11.20;99.90;;;;;;5112322;28;20134;-70
2022/06/14 00:44:06;;;;;;;16.95;5.03;;;10.80;99.90;;;;;;5112096;28;20047;-69
2022/06/14 00:46:57;;;;;;;18.00;4.47;;;10.70;99.90;;;;;;5112271;28;20229;-69
2022/06/14 00:49:48;;;;;;;13.52;4.60;;;10.90;99.90;;;;;;5104540;28;20091;-70
2022/06/14 00:52:48;;;;;;;16.23;5.15;;;10.60;99.90;;;;;;5107967;28;20074;-70
2022/06/14 00:55:20;;;;;;;16.40;4.32;;;10.50;99.90;;;;;;5096994;28;20511;-69
2022/06/14 00:57:57;;;;;;;12.48;4.25;;;10.80;99.90;;;;;;5116361;28;20415;-69
2022/06/14 01:00:29;;;;;;;17.98;4.28;;;10.70;99.90;;;;;;5116264;28;20039;-68
2022/06/14 01:02:58;;;;;;;14.20;4.35;;;10.60;99.90;;;;;;5116233;28;20067;-69
2022/06/14 01:06:07;;;;;;;16.38;4.30;;;10.40;99.90;;;;;;5116067;28;20066;-69
2022/06/14 01:08:48;;;;;;;17.05;4.47;;;10.60;99.90;;;;;;5086441;28;20063;-68
2022/06/14 01:11:20;;;;;;;12.20;5.15;;;11.40;99.90;;;;;;5115947;27;20134;-70
2022/06/14 01:13:46;;;;;;;12.65;3.97;;;11.90;99.90;;;;;;5116050;28;20044;-68
2022/06/14 01:16:12;;;;;;;12.68;4.90;;;10.40;99.90;;;;;;5115844;28;20044;-69
2022/06/14 01:18:38;;;;;;;;;;;10.20;99.90;;;;;;5115398;28;20202;-69
2022/06/14 01:21:05;;;;;;;11.80;4.07;;;10.20;99.90;;;;;;5116103;28;19924;-71
2022/06/14 01:23:31;;;;;;;;;;;10.10;99.90;;;;;;5115989;28;20080;-70
2022/06/14 01:26:07;;;;;;;14.10;4.60;;;10.40;99.90;;;;;;5115797;28;20019;-69
2022/06/14 01:28:34;;;;;;;;;;;10.40;99.90;;;;;;5114639;28;20130;-70
2022/06/14 01:30:59;;;;;;;12.30;4.27;;;10.00;99.90;;;;;;5115705;28;19924;-70
2022/06/14 01:33:30;;;;;;;18.52;4.43;;;10.50;99.90;;;;;;5115521;28;20039;-71
2022/06/14 01:36:04;;;;;;;11.15;4.00;;;10.00;99.90;;;;;;5115534;28;20047;-70
2022/06/14 01:38:30;;;;;;;13.63;4.20;;;10.00;99.90;;;;;;5114460;28;20056;-71
2022/06/14 01:41:21;;;;;;;18.83;4.90;;;9.90;99.90;;;;;;5115407;28;20606;-69
2022/06/14 01:44:05;;;;;;;14.55;4.40;;;9.80;99.90;;;;;;5114820;28;20522;-70
2022/06/14 01:47:00;;;;;;;11.43;4.60;;;9.90;99.90;;;;;;5115261;28;20043;-69
2022/06/14 01:53:05;;;;;;;15.88;4.32;;;9.80;99.90;;;;;;5114926;28;20058;-68
2022/06/14 01:55:46;;;;;;;13.52;4.07;;;9.50;99.90;;;;;;5114868;28;20059;-71
2022/06/14 01:58:21;;;;;;;13.38;4.30;;;10.20;99.90;;;;;;5114978;28;20049;-70
2022/06/14 02:00:50;;;;;;;14.27;4.68;;;9.70;99.90;;;;;;5113815;28;20052;-70
2022/06/14 02:06:29;;;;;;;17.17;4.72;;;9.70;99.90;;;;;;5114931;28;20502;-69
2022/06/14 02:09:07;;;;;;;18.63;4.32;;;9.70;99.90;;;;;;5114655;28;20047;-70
2022/06/14 02:11:35;;;;;;;15.65;4.68;;;9.60;99.90;;;;;;5113707;28;20059;-69
2022/06/14 02:14:27;;;;;;;14.20;4.90;;;10.10;99.90;;;;;;5114848;28;20043;-70
2022/06/14 02:17:01;;;;;;;17.45;3.97;;;9.40;99.90;;;;;;5114839;28;20062;-69
2022/06/14 02:19:35;;;;;;;10.35;4.38;;;9.60;99.90;;;;;;5114785;28;20075;-69
2022/06/14 02:22:13;;;;;;;14.27;4.03;;;9.80;99.90;;;;;;5114636;28;20140;-69
2022/06/14 02:24:45;;;;;;;17.15;4.90;;;9.60;99.90;;;;;;5114533;28;20047;-69
2022/06/14 02:27:33;;;;;;;14.85;4.43;;;9.60;99.90;;;;;;5114547;28;20127;-69
2022/06/14 02:30:05;;;;;;;11.13;4.28;;;9.70;99.90;;;;;;5114339;28;20191;-69
2022/06/14 02:32:47;;;;;;;16.08;4.28;;;10.40;99.90;;;;;;5114471;28;20094;-69
2022/06/14 02:35:25;;;;;;;13.00;4.57;;;9.30;99.90;;;;;;5114442;28;20044;-68
2022/06/14 02:38:27;;;;;;;10.45;3.90;;;9.30;99.90;;;;;;5114313;28;20089;-68
2022/06/14 02:41:04;;;;;;;11.63;4.40;;;9.50;99.90;;;;;;5114303;28;20101;-68
2022/06/14 02:43:51;;;;;;;18.42;4.22;;;9.70;99.90;;;;;;5112704;28;20052;-68
2022/06/14 02:46:23;;;;;;;;;;;9.50;99.90;;;;;;5114624;28;20051;-69
2022/06/14 02:48:55;;;;;;;12.35;3.90;;;9.50;99.90;;;;;;5113863;28;20005;-68
2022/06/14 02:51:26;;;;;;;17.25;4.70;;;9.50;99.90;;;;;;5113974;27;20407;-69
2022/06/14 02:53:57;;;;;;;19.80;5.00;;;9.80;99.90;;;;;;5113955;28;20047;-68
2022/06/14 02:56:51;;;;;;;14.88;5.30;;;10.70;99.90;;;;;;5113787;28;20050;-69
2022/06/14 02:59:23;;;;;;;17.80;5.32;;;9.70;99.90;;;;;;5112544;28;20399;-69
2022/06/14 03:01:57;;;;;;;14.98;4.78;;;9.60;99.90;;;;;;5113716;28;20039;-68
2022/06/14 03:04:43;;;;;;;12.27;4.50;;;9.90;99.90;;;;;;5113452;28;20556;-69
2022/06/14 03:07:32;;;;;;;15.10;4.60;;;9.70;99.90;;;;;;5113836;28;20062;-68
2022/06/14 03:09:58;;;;;;;17.02;4.57;;;9.40;99.90;;;;;;5113675;28;20108;-69
2022/06/14 03:12:40;;;;;;;17.48;5.00;;;9.30;99.90;;;;;;5113557;28;20472;-68
2022/06/14 03:15:22;;;;;;;12.23;4.90;;;9.40;99.90;;;;;;5113328;28;20055;-70
2022/06/14 03:18:03;;;;;;;13.60;4.55;;;9.50;99.90;;;;;;5113500;28;20043;-69
2022/06/14 03:20:41;;;;;;;16.52;4.93;;;9.40;99.90;;;;;;5112109;28;20479;-69
2022/06/14 03:23:19;;;;;;;9.68;4.65;;;9.50;99.90;;;;;;5113510;28;20043;-68
2022/06/14 03:26:06;;;;;;;27.73;6.75;;;9.70;99.90;;;;;;5113348;28;20051;-68
2022/06/14 03:28:36;;;;;;;16.42;5.30;;;9.40;99.90;;;;;;5113016;28;20085;-69
2022/06/14 03:31:28;;;;;;;14.05;5.65;;;10.50;99.90;;;;;;5112067;28;20089;-69
2022/06/14 03:34:12;;;;;;;14.68;5.22;;;9.80;99.90;;;;;;5113259;28;20040;-69
2022/06/14 03:36:38;;;;;;;13.23;4.57;;;9.50;99.90;;;;;;5113154;28;20094;-68
2022/06/14 03:39:11;;;;;;;11.60;4.88;;;9.80;99.90;;;;;;5112696;28;20074;-69
2022/06/14 03:41:40;;;;;;;16.25;4.75;;;9.50;99.90;;;;;;5112777;28;20468;-70
2022/06/14 03:44:07;;;;;;;19.83;5.80;;;9.90;99.90;;;;;;5113083;28;20087;-71
2022/06/14 03:46:40;;;;;;;16.58;4.97;;;9.40;99.90;;;;;;5113014;28;20056;-69
2022/06/14 03:49:11;;;;;;;13.07;5.13;;;9.50;99.90;;;;;;5094792;28;20040;-69
2022/06/14 03:51:52;;;;;;;14.82;4.90;;;10.40;99.90;;;;;;5111588;28;20051;-69
2022/06/14 03:54:53;;;;;;;11.52;5.25;;;9.50;99.90;;;;;;5112958;28;20059;-69
2022/06/14 03:57:21;;;;;;;13.60;4.45;;;9.60;99.90;;;;;;5112637;28;20055;-68
2022/06/14 04:00:22;;;;;;;10.25;4.60;;;9.60;99.90;;;;;;5112591;28;20164;-68
2022/06/14 04:03:06;;;;;;;14.90;5.13;;;9.70;99.90;;;;;;5067719;28;20138;-70
2022/06/14 04:05:32;;;;;;;16.55;5.05;;;9.80;99.90;;;;;;5112459;28;20143;-69
2022/06/14 04:08:35;;;;;;;11.15;4.65;;;9.60;99.90;;;;;;5112438;28;20146;-69
2022/06/14 04:11:10;;;;;;;15.43;4.72;;;9.90;99.90;;;;;;5110300;28;20063;-70
2022/06/14 04:13:35;;;;;;;13.77;5.20;;;9.60;99.90;;;;;;5112514;28;20433;-69
2022/06/14 04:16:42;;;;;;;15.25;4.95;;;10.00;99.90;;;;;;5111457;28;20055;-69
2022/06/14 04:19:23;;;;;;;10.32;4.40;;;10.00;99.90;;;;;;5112501;28;20048;-69
2022/06/14 04:21:58;;;;;;;15.25;5.28;;;12.20;99.90;;;;;;5110976;28;20558;-69
2022/06/14 04:24:42;;;;;;;18.65;4.60;;;9.90;99.90;;;;;;5110951;28;20039;-69
2022/06/14 04:27:15;;;;;;;11.93;4.78;;;10.20;99.90;;;;;;5112400;28;20178;-69
2022/06/14 04:29:58;;;;;;;13.85;4.85;;;9.70;99.90;;;;;;5110719;28;20063;-69
2022/06/14 04:32:45;;;;;;;15.30;5.13;;;10.40;99.90;;;;;;5112474;28;20156;-68
2022/06/14 04:35:20;;;;;;;16.88;5.50;;;10.10;99.90;;;;;;5111353;28;20087;-69
2022/06/14 04:37:53;;;;;;;14.95;5.40;;;10.30;99.90;;;;;;5112381;28;20107;-68
2022/06/14 04:40:36;;;;;;;14.05;5.28;;;10.50;99.90;;;;;;5112394;28;20050;-68
2022/06/14 04:43:16;;;;;;;18.75;5.43;;;10.20;99.90;;;;;;5112413;28;20107;-68
2022/06/14 04:46:13;;;;;;;17.77;5.72;;;10.20;99.90;;;;;;5112334;28;20059;-70
2022/06/14 04:48:55;;;;;;;15.75;5.63;;;10.50;99.90;;;;;;5112513;28;20078;-69
2022/06/14 04:51:40;;;;;;;17.80;5.65;;;10.80;99.90;;;;;;5110899;28;20163;-68
2022/06/14 04:54:15;;;;;;;16.00;6.28;;;10.60;99.90;;;;;;5112282;28;20430;-68
2022/06/14 04:56:57;;;;;;;15.77;5.70;;;10.70;99.90;;;;;;5112156;28;20042;-68
2022/06/14 04:59:29;;;;;;;15.15;5.10;;;10.60;99.90;;;;;;5112178;28;20376;-68
2022/06/14 05:02:04;;;;;;;15.32;5.72;;;11.50;99.90;;;;;;5111080;28;20051;-68
2022/06/14 05:04:40;;;;;;;19.02;5.30;;;11.00;99.90;;;;;;5110891;28;20452;-68
2022/06/14 05:07:25;;;;;;;11.87;5.53;;;11.20;99.90;;;;;;5111877;28;20484;-67
2022/06/14 05:10:12;;;;;;;17.23;5.82;;;11.40;99.90;;;;;;5111672;28;20054;-67
2022/06/14 05:12:55;;;;;;;12.82;5.32;;;11.40;99.90;;;;;;5112004;28;20134;-67
2022/06/14 05:15:53;;;;;;;15.82;5.00;;;11.30;99.90;;;;;;5111066;28;20047;-67
2022/06/14 05:18:25;;;;;;;;;;;11.90;99.90;;;;;;5106937;28;20091;-68
2022/06/14 05:21:13;;;;;;;12.85;5.47;;;11.90;99.90;;;;;;5111874;28;19920;-67
2022/06/14 05:23:49;;;;;;;10.10;4.93;;;12.10;99.90;;;;;;5111929;28;20040;-67
2022/06/14 05:26:33;;;;;;;12.88;4.47;;;12.10;99.90;;;;;;5110546;28;20460;-67
2022/06/14 05:29:25;;;;;;;14.57;4.18;;;12.20;99.90;;;;;;5111623;28;20055;-68
2022/06/14 05:32:15;;;;;;;9.18;3.85;;;12.40;99.90;;;;;;5111660;28;20043;-68
2022/06/14 05:34:41;;;;;;;15.73;4.40;;;12.70;99.90;;;;;;5111805;28;20491;-68
2022/06/14 05:37:18;;;;;;;14.73;4.15;;;12.70;99.90;;;;;;5112593;28;20086;-67
2022/06/14 05:40:00;;;;;;;12.48;3.88;;;12.70;99.90;;;;;;5114413;28;20055;-67
2022/06/14 05:42:30;;;;;;;13.90;4.40;;;12.90;99.90;;;;;;5115485;28;20048;-67
2022/06/14 05:45:00;;;;;;;12.90;4.22;;;12.60;99.90;;;;;;5115408;27;20475;-67
2022/06/14 05:47:38;;;;;;;13.50;4.07;;;12.70;99.90;;;;;;5114883;28;20494;-67
2022/06/14 05:50:13;;;;;;;13.82;3.95;;;13.00;99.90;;;;;;5115241;28;20123;-67
2022/06/14 05:53:04;;;;;;;10.23;3.47;;;13.10;99.90;;;;;;5114311;28;20067;-67
2022/06/14 05:55:34;;;;;;;11.02;3.97;;;12.90;99.90;;;;;;5114643;28;20062;-68
2022/06/14 05:58:15;;;;;;;10.57;3.83;;;12.90;99.90;;;;;;5115099;28;20043;-68
2022/06/14 06:00:51;;;;;;;11.40;4.10;;;13.30;99.90;;;;;;5115142;28;20039;-67
2022/06/14 06:03:52;;;;;;;12.48;4.13;;;13.30;99.90;;;;;;5115058;28;20479;-67
2022/06/14 06:06:24;;;;;;;9.80;4.13;;;13.40;99.90;;;;;;5114917;27;20109;-68
2022/06/14 06:09:01;;;;;;;11.38;3.83;;;13.70;99.90;;;;;;5114852;28;20479;-68
2022/06/14 06:11:43;;;;;;;12.13;3.83;;;13.80;99.90;;;;;;5115031;28;20043;-68
2022/06/14 06:14:09;;;;;;;13.13;4.18;;;13.60;99.90;;;;;;5114845;28;20062;-68
2022/06/14 06:19:20;;;;;;;14.52;4.18;;;13.70;99.90;;;;;;5110238;27;20043;-68
2022/06/14 06:22:10;;;;;;;12.82;3.83;;;13.90;99.90;;;;;;5111937;27;20051;-68
2022/06/14 06:24:58;;;;;;;12.00;3.50;;;14.20;99.90;;;;;;5110327;28;20077;-68
2022/06/14 06:27:33;;;;;;;11.32;3.90;;;14.10;99.90;;;;;;5105901;28;20059;-70
2022/06/14 06:30:15;;;;;;;11.00;3.90;;;14.40;99.90;;;;;;5110470;28;20059;-68
2022/06/14 06:32:42;;;;;;;8.10;3.10;;;14.20;99.90;;;;;;5111459;28;20059;-72
2022/06/14 06:35:09;;;;;;;13.57;3.90;;;14.20;99.90;;;;;;5111459;28;20061;-69
2022/06/14 06:37:53;;;;;;;18.92;3.55;;;14.50;99.90;;;;;;5112288;28;20055;-69
2022/06/14 06:40:24;;;;;;;9.05;3.17;;;14.60;99.90;;;;;;5111072;28;20043;-69
2022/06/14 06:43:00;;;;;;;9.15;2.75;;;14.90;99.90;;;;;;5111264;28;20051;-68
2022/06/14 06:45:30;;;;;;;;;;;14.30;99.90;;;;;;5108538;28;20193;-69
2022/06/14 06:48:09;;;;;;;8.05;3.03;;;14.80;99.90;;;;;;5111963;28;19931;-68
2022/06/14 06:50:49;;;;;;;8.10;2.35;;;15.00;99.90;;;;;;5110122;28;20044;-68
2022/06/14 06:53:23;;;;;;;8.13;2.40;;;15.00;99.90;;;;;;5111936;28;20496;-68
2022/06/14 06:55:59;;;;;;;7.85;2.25;;;15.20;99.90;;;;;;5111432;28;20099;-68
2022/06/14 06:58:27;;;;;;;;;;;15.10;99.90;;;;;;5108671;28;20073;-68
2022/06/14 07:00:58;;;;;;;6.47;2.20;;;15.60;99.90;;;;;;5111367;28;20375;-68
2022/06/14 07:03:37;;;;;;;10.02;2.40;;;15.40;99.90;;;;;;5108907;28;20047;-69
2022/06/14 07:06:06;;;;;;;7.00;2.25;;;15.50;99.90;;;;;;5111710;28;20047;-68
2022/06/14 07:08:52;;;;;;;6.70;2.25;;;15.90;99.90;;;;;;5109363;28;20047;-68
2022/06/14 07:11:22;;;;;;;8.10;2.42;;;16.30;99.90;;;;;;5107489;28;20487;-67
2022/06/14 07:14:00;;;;;;;8.70;2.50;;;15.90;99.90;;;;;;5110484;28;20494;-68
2022/06/14 07:16:41;;;;;;;6.25;2.60;;;15.60;99.90;;;;;;5110267;28;20060;-68
2022/06/14 07:19:29;;;;;;;9.38;2.97;;;15.50;99.90;;;;;;5108899;28;20498;-68
2022/06/14 07:22:15;;;;;;;6.50;2.33;;;15.70;99.90;;;;;;5111135;28;20052;-68
2022/06/14 07:24:58;;;;;;;8.70;2.55;;;16.10;99.90;;;;;;5111041;28;20046;-68
2022/06/14 07:27:29;;;;;;;7.53;2.90;;;16.10;99.90;;;;;;5106984;28;20074;-69
2022/06/14 07:30:07;;;;;;;6.97;2.65;;;16.60;99.90;;;;;;5109850;28;20110;-67
2022/06/14 07:32:42;;;;;;;8.35;2.80;;;16.20;99.90;;;;;;5120242;27;20047;-68
2022/06/14 07:35:08;;;;;;;5.00;2.13;;;16.80;99.90;;;;;;5131523;27;20051;-68
2022/06/14 07:37:52;;;;;;;;;;;16.30;99.90;;;;;;5132034;27;20205;-69
2022/06/14 07:40:33;;;;;;;8.00;2.35;;;16.20;99.90;;;;;;5099719;27;19920;-70
2022/06/14 07:43:18;;;;;;;9.10;3.08;;;15.60;99.90;;;;;;5112135;28;20056;-70
2022/06/14 07:45:48;;;;;;;6.80;1.98;;;16.20;99.90;;;;;;5092341;28;20044;-65
2022/06/14 07:48:26;;;;;;;4.80;1.80;;;16.40;99.90;;;;;;5091896;28;20077;-66
2022/06/14 07:50:55;;;;;;;7.85;2.40;;;16.60;99.90;;;;;;5090749;28;20048;-69
2022/06/14 07:53:36;;;;;;;7.82;2.13;;;16.20;99.90;;;;;;5107632;28;20031;-69
2022/06/14 07:56:13;;;;;;;10.88;2.55;;;16.30;99.90;;;;;;5113692;27;20058;-67
2022/06/14 07:58:48;;;;;;;8.00;2.10;;;16.40;99.90;;;;;;5119269;27;20081;-67
2022/06/14 08:01:25;;;;;;;6.15;1.92;;;16.60;99.90;;;;;;5129633;27;20398;-68
2022/06/14 08:04:24;;;;;;;6.03;2.15;;;16.40;99.90;;;;;;5132623;27;20047;-66
2022/06/14 08:07:11;;;;;;;2.67;1.60;;;16.90;99.90;;;;;;5097154;27;20403;-70
2022/06/14 08:09:41;;;;;;;6.63;1.98;;;17.20;99.90;;;;;;5131519;27;20084;-65
2022/06/14 08:12:15;;;;;;;4.80;1.67;;;18.40;99.90;;;;;;5132768;27;20058;-71
2022/06/14 08:14:46;;;;;;;3.97;1.67;;;17.20;99.90;;;;;;5132734;27;20039;-65
2022/06/14 08:17:24;;;;;;;5.18;1.60;;;17.20;99.90;;;;;;5132297;27;20080;-63
2022/06/14 08:19:55;;;;;;;8.70;2.05;;;17.20;99.90;;;;;;5132993;27;20125;-69
2022/06/14 08:22:35;;;;;;;4.70;1.95;;;17.40;99.90;;;;;;5132604;27;20112;-68
2022/06/14 08:25:08;;;;;;;6.88;1.60;;;17.40;99.90;;;;;;5132566;27;20081;-69
2022/06/14 08:27:39;;;;;;;3.58;1.73;;;17.20;99.90;;;;;;5132536;27;20391;-68
2022/06/14 08:30:10;;;;;;;4.63;2.08;;;17.40;99.90;;;;;;5118762;27;20059;-67
2022/06/14 08:32:57;;;;;;;3.38;1.83;;;17.80;99.90;;;;;;5104370;28;20048;-67
2022/06/14 08:35:26;;;;;;;11.55;2.03;;;18.00;99.90;;;;;;5095554;28;20055;-67
2022/06/14 08:37:58;;;;;;;4.68;1.73;;;18.10;99.90;;;;;;5122444;28;20673;-67
2022/06/14 08:40:47;;;;;;;4.22;1.60;;;18.00;99.90;;;;;;5125419;27;20047;-69
2022/06/14 08:43:20;;;;;;;1.95;1.58;;;18.30;99.90;;;;;;5109134;28;20149;-68
2022/06/14 08:46:11;;;;;;;3.88;1.80;;;18.10;99.90;;;;;;5109168;28;20100;-68
2022/06/14 08:49:00;;;;;;;4.03;1.80;;;17.90;99.90;;;;;;5107416;28;20047;-68
2022/06/14 08:51:42;;;;;;;6.80;1.90;;;18.50;99.90;;;;;;5108332;28;20047;-68
2022/06/14 08:54:17;;;;;;;4.93;1.70;;;18.60;99.90;;;;;;5108993;28;20107;-68
2022/06/14 08:57:19;;;;;;;6.53;1.83;;;18.60;99.90;;;;;;5106053;28;20044;-68
2022/06/14 08:59:54;;;;;;;6.70;1.90;;;18.60;99.90;;;;;;5108112;28;20062;-68
2022/06/14 09:02:41;;;;;;;5.13;1.80;;;19.40;99.90;;;;;;5108838;28;20040;-67
2022/06/14 09:05:44;;;;;;;7.10;2.00;;;18.90;99.90;;;;;;5109029;28;20081;-69
2022/06/14 09:08:28;;;;;;;6.57;2.15;;;18.60;99.90;;;;;;5103990;28;20044;-70
2022/06/14 09:11:43;;;;;;;7.70;2.40;;;18.60;99.90;;;;;;5107288;28;20546;-66
2022/06/14 09:14:31;;;;;;;7.47;1.85;;;18.60;99.90;;;;;;5113601;28;20058;-67
2022/06/14 09:17:14;;;;;;;5.28;1.95;;;18.30;99.90;;;;;;5113383;28;20060;-67
2022/06/14 09:20:02;;;;;;;6.63;2.33;;;18.40;99.90;;;;;;5111674;28;20044;-67
2022/06/14 09:22:38;;;;;;;6.38;2.72;;;18.00;99.90;;;;;;5113286;28;20083;-67
2022/06/14 09:25:22;;;;;;;6.53;2.33;;;17.50;99.90;;;;;;5107646;28;20043;-67
2022/06/14 09:28:16;;;;;;;6.63;2.17;;;17.40;99.90;;;;;;5111622;28;20120;-67
2022/06/14 09:31:00;;;;;;;7.35;2.80;;;17.50;99.90;;;;;;5114673;28;20059;-67
2022/06/14 09:34:05;;;;;;;5.03;2.72;;;17.30;99.90;;;;;;5115445;28;20213;-67
2022/06/14 09:37:01;;;;;;;3.70;3.00;;;17.30;99.90;;;;;;5113609;28;20044;-72
2022/06/14 09:39:30;;;;;;;11.05;3.78;;;17.00;99.90;;;;;;5111357;27;20117;-66
2022/06/14 09:42:19;;;;;;;9.48;3.90;;;16.90;99.90;;;;;;5111383;27;20101;-66
2022/06/14 09:45:07;;;;;;;5.43;2.47;;;17.00;99.90;;;;;;5112348;27;20050;-65
2022/06/14 09:47:48;;;;;;;8.00;3.35;;;16.90;99.90;;;;;;5113953;28;20047;-66
2022/06/14 09:50:23;;;;;;;6.25;2.90;;;17.10;99.90;;;;;;5094465;28;20040;-66
2022/06/14 09:53:23;;;;;;;9.00;2.30;;;17.00;99.90;;;;;;5094511;28;20047;-65
2022/06/14 09:56:10;;;;;;;6.40;2.28;;;17.30;99.90;;;;;;5094165;28;20492;-66
2022/06/14 09:59:00;;;;;;;6.07;2.50;;;17.50;99.90;;;;;;5094542;28;20085;-67
2022/06/14 10:01:32;;;;;;;11.10;3.65;;;17.50;99.90;;;;;;5094397;28;20360;-66
2022/06/14 10:04:36;;;;;;;8.98;3.17;;;17.70;99.90;;;;;;5094458;28;20060;-66
2022/06/14 10:07:20;;;;;;;8.63;3.42;;;17.50;99.90;;;;;;5094039;28;20052;-66
2022/06/14 10:10:03;;;;;;;5.38;2.67;;;17.50;99.90;;;;;;5094091;28;20040;-66
2022/06/14 10:12:57;;;;;;;9.15;2.30;;;17.60;99.90;;;;;;5094144;28;20056;-66
2022/06/14 10:15:40;;;;;;;7.78;2.28;;;17.80;99.90;;;;;;5094156;28;20047;-66
2022/06/14 10:18:30;;;;;;;8.05;2.45;;;17.80;99.90;;;;;;5096453;28;20465;-66
2022/06/14 10:21:03;;;;;;;6.68;2.55;;;18.30;99.90;;;;;;5113408;28;20533;-66
2022/06/14 10:23:47;;;;;;;4.95;2.60;;;18.40;99.90;;;;;;5114046;28;20044;-68
2022/06/14 10:29:39;;;;;;;8.73;3.40;;;18.40;99.90;;;;;;5113929;28;20082;-69
2022/06/14 10:32:17;;;;;;;7.55;3.20;;;18.60;99.90;;;;;;5114181;28;20085;-65
2022/06/14 10:34:56;;;;;;;6.78;2.88;;;18.70;99.90;;;;;;5113287;28;20052;-66
2022/06/14 10:37:25;;;;;;;7.97;2.60;;;18.60;99.90;;;;;;5114136;28;20079;-67
2022/06/14 10:40:22;;;;;;;6.32;2.58;;;18.60;99.90;;;;;;5110796;27;20047;-67
2022/06/14 10:43:03;;;;;;;4.10;2.77;;;18.80;99.90;;;;;;5111552;28;20039;-67
2022/06/14 10:45:54;;;;;;;4.75;2.70;;;18.80;99.90;;;;;;5110851;28;20071;-67
2022/06/14 10:48:38;;;;;;;6.18;2.70;;;18.70;99.90;;;;;;5108818;28;20050;-67
2022/06/14 10:51:35;;;;;;;6.38;2.53;;;19.00;99.90;;;;;;5111281;27;20110;-67
2022/06/14 10:54:16;;;;;;;;;;;19.00;99.90;;;;;;5109106;28;20047;-68
2022/06/14 10:57:05;;;;;;;4.95;2.35;;;19.30;99.90;;;;;;5110551;28;20196;-68
2022/06/14 10:59:50;;;;;;;5.57;2.55;;;19.00;99.90;;;;;;5108390;28;20065;-67
2022/06/14 11:02:34;;;;;;;4.38;2.53;;;19.40;99.90;;;;;;5111076;28;20131;-66
2022/06/14 11:05:13;;;;;;;7.07;2.63;;;19.50;99.90;;;;;;5109890;28;20074;-66
2022/06/14 11:08:00;;;;;;;4.65;2.03;;;19.70;99.90;;;;;;5108543;28;20074;-66
2022/06/14 11:10:50;;;;;;;7.15;2.13;;;19.80;99.90;;;;;;5105481;28;20521;-67
2022/06/14 11:13:38;;;;;;;5.80;2.20;;;19.50;99.90;;;;;;5108121;28;20051;-66
2022/06/14 11:16:09;;;;;;;4.13;1.83;;;19.40;99.90;;;;;;5108173;28;20067;-66
2022/06/14 11:18:53;;;;;;;5.57;1.92;;;20.00;99.90;;;;;;5111058;28;20074;-67
2022/06/14 11:21:43;;;;;;;4.43;1.88;;;19.30;99.90;;;;;;5108251;28;20130;-68
2022/06/14 11:24:27;;;;;;;6.13;2.00;;;18.80;99.90;;;;;;5109454;28;20051;-66
2022/06/14 11:27:16;;;;;;;3.33;1.73;;;18.70;99.90;;;;;;5103197;27;20446;-66
2022/06/14 11:30:06;;;;;;;4.55;1.80;;;18.40;99.90;;;;;;5109845;28;20391;-67
2022/06/14 11:32:48;;;;;;;7.13;2.05;;;18.20;99.90;;;;;;5106053;28;20051;-67
2022/06/14 11:35:33;;;;;;;6.15;2.05;;;18.30;99.90;;;;;;5108836;28;20398;-65
2022/06/14 11:38:43;;;;;;;4.15;1.83;;;18.10;99.90;;;;;;5109705;28;20067;-67
2022/06/14 11:41:12;;;;;;;6.65;2.28;;;18.30;99.90;;;;;;5065388;28;20151;-66
2022/06/14 11:43:53;;;;;;;6.88;2.63;;;18.60;99.90;;;;;;5066288;28;20048;-66
2022/06/14 11:46:26;;;;;;;4.15;1.85;;;18.10;99.90;;;;;;5091776;28;20114;-67
2022/06/14 11:48:54;;;;;;;5.70;1.90;;;18.40;99.90;;;;;;5110085;28;20082;-67
2022/06/14 11:51:38;;;;;;;3.65;1.77;;;18.20;99.90;;;;;;5108804;28;20120;-67
2022/06/14 11:54:18;;;;;;;5.30;1.90;;;18.20;99.90;;;;;;5109299;28;20123;-66
2022/06/14 11:56:54;;;;;;;4.75;1.77;;;18.00;99.90;;;;;;5109467;28;20050;-66
2022/06/14 11:59:32;;;;;;;5.70;1.80;;;17.90;99.90;;;;;;5111267;28;20051;-66
2022/06/14 12:02:30;;;;;;;6.72;2.15;;;17.70;99.90;;;;;;5112604;28;20138;-68
2022/06/14 12:05:20;;;;;;;6.05;2.15;;;17.70;99.90;;;;;;5105890;28;20407;-67
2022/06/14 12:08:01;;;;;;;5.60;1.85;;;17.80;99.90;;;;;;5112627;28;20096;-66
2022/06/14 12:10:47;;;;;;;5.80;1.90;;;17.70;99.90;;;;;;5112116;28;20043;-66
2022/06/14 12:14:10;;;;;;;3.95;2.10;;;17.80;99.90;;;;;;5112426;28;20058;-67
2022/06/14 12:16:41;;;;;;;6.40;1.90;;;18.20;99.90;;;;;;5032780;28;20057;-68
2022/06/14 12:19:21;;;;;;;7.85;2.50;;;17.70;99.90;;;;;;5048687;28;20044;-67
2022/06/14 12:22:26;;;;;;;5.18;2.17;;;17.70;99.90;;;;;;5094780;28;20060;-67
2022/06/14 12:27:42;;;;;;;7.00;2.40;;;17.70;99.90;;;;;;5112366;28;20051;-68
2022/06/14 12:30:10;;;;;;;8.43;2.60;;;17.90;99.90;;;;;;5112117;28;20126;-68
2022/06/14 12:32:42;;;;;;;6.72;2.33;;;17.90;99.90;;;;;;5112033;28;20079;-67
2022/06/14 12:35:16;;;;;;;7.10;2.33;;;17.70;99.90;;;;;;5112247;28;20055;-67
2022/06/14 12:37:50;;;;;;;7.05;2.05;;;18.10;99.90;;;;;;5112311;28;20108;-67
2022/06/14 12:40:47;;;;;;;6.00;2.20;;;18.00;99.90;;;;;;5108536;28;20046;-68
2022/06/14 12:43:23;;;;;;;9.85;2.40;;;18.00;99.90;;;;;;5109295;28;20437;-67
2022/06/14 12:46:09;;;;;;;;;;;18.20;99.90;;;;;;5114177;28;20135;-67
2022/06/14 12:49:04;;;;;;;9.00;2.95;;;17.80;99.90;;;;;;5103253;28;19965;-68
2022/06/14 12:51:49;;;;;;;6.35;2.35;;;17.80;99.90;;;;;;5106257;28;20050;-67
2022/06/14 12:54:17;;;;;;;6.68;2.60;;;17.90;99.90;;;;;;5095514;28;20481;-66
2022/06/14 12:56:55;;;;;;;8.70;2.63;;;18.00;99.90;;;;;;5095998;28;20056;-67
2022/06/14 12:59:39;;;;;;;5.95;2.40;;;17.70;99.90;;;;;;5095946;28;20036;-66
2022/06/14 13:02:26;;;;;;;5.15;2.20;;;17.60;99.90;;;;;;5095775;28;20181;-67
2022/06/14 13:05:23;;;;;;;6.72;2.20;;;18.00;99.90;;;;;;5095742;28;20101;-66
2022/06/14 13:08:04;;;;;;;8.43;2.63;;;18.20;99.90;;;;;;5079481;28;20089;-66
2022/06/14 13:10:56;;;;;;;4.13;2.00;;;18.20;99.90;;;;;;5095449;28;20441;-67
2022/06/14 13:13:36;;;;;;;8.55;2.05;;;17.80;99.90;;;;;;5094161;28;20100;-66
2022/06/14 13:16:08;;;;;;;7.88;2.35;;;17.40;99.90;;;;;;5095466;28;20083;-66
2022/06/14 13:19:04;;;;;;;4.88;2.03;;;17.90;99.90;;;;;;5095103;28;20803;-67
2022/06/14 13:21:35;;;;;;;6.97;2.50;;;17.90;99.90;;;;;;5094951;28;20491;-67
2022/06/14 13:24:15;;;;;;;6.35;2.22;;;17.80;99.90;;;;;;5095147;28;20048;-68
2022/06/14 13:27:15;;;;;;;7.88;2.30;;;17.80;99.90;;;;;;5095335;28;20044;-66
2022/06/14 13:30:01;;;;;;;4.80;2.10;;;18.10;99.90;;;;;;5093532;28;20051;-66
2022/06/14 13:32:42;;;;;;;4.65;2.50;;;17.90;99.90;;;;;;5094941;28;20458;-66
2022/06/14 13:35:38;;;;;;;5.70;2.20;;;18.00;99.90;;;;;;5095065;28;20048;-66
2022/06/14 13:38:11;;;;;;;7.50;2.33;;;17.90;99.90;;;;;;5094966;28;20059;-67
2022/06/14 13:40:45;;;;;;;7.00;2.42;;;18.10;99.90;;;;;;5095036;28;20119;-66
2022/06/14 13:43:28;;;;;;;7.00;2.25;;;18.10;99.90;;;;;;5094893;28;20052;-66
2022/06/14 13:46:16;;;;;;;5.63;2.05;;;18.30;99.90;;;;;;5094658;28;20480;-67
2022/06/14 13:48:53;;;;;;;6.75;2.17;;;18.20;99.90;;;;;;5093730;28;20059;-66
2022/06/14 13:51:24;;;;;;;7.40;2.17;;;18.50;99.90;;;;;;5095039;28;20511;-66
2022/06/14 13:54:02;;;;;;;10.15;2.28;;;18.50;99.90;;;;;;5093493;28;20044;-66
2022/06/14 13:57:10;;;;;;;5.43;2.10;;;18.60;99.90;;;;;;5094628;28;20040;-67
2022/06/14 13:59:39;;;;;;;6.32;2.38;;;18.60;99.90;;;;;;5094373;28;20477;-66
2022/06/14 14:02:26;;;;;;;6.45;2.00;;;18.70;99.90;;;;;;5094433;28;20119;-66
2022/06/14 14:05:17;;;;;;;6.88;2.20;;;18.70;99.90;;;;;;5094193;28;20865;-66
2022/06/14 14:08:06;;;;;;;3.92;2.03;;;18.70;99.90;;;;;;5094441;28;20056;-66
2022/06/14 14:11:13;;;;;;;5.15;2.20;;;18.70;99.90;;;;;;5094325;28;20050;-66